Time;durP1;ratioP1;P1;durP2;ratioP2;P2;SDS_P1;SDS_P2;PMS_P1;PMS_P2;Temp;Humidity;BMP_temperature;BMP_pressure;BME280_temperature;BME280_humidity;BME280_pressure;Samples;Min_cycle;Max_cycle;Signal;HPM_P1;HPM_P2
2023/09/27 00:00:09;;;;;;;4.53;4.13;;;;;;;;;;5000901;28;20221;-87
2023/09/27 00:02:40;;;;;;;6.13;5.57;;;;;;;;;;4984454;28;20227;-87
2023/09/27 00:05:10;;;;;;;4.90;4.60;;;;;;;;;;4990316;28;20348;-86
2023/09/27 00:07:37;;;;;;;5.33;4.83;;;;;;;;;;4972378;28;20296;-85
2023/09/27 00:10:06;;;;;;;7.10;5.28;;;;;;;;;;4995326;28;20226;-85
2023/09/27 00:12:32;;;;;;;5.55;5.15;;;;;;;;;;4978973;28;20470;-85
2023/09/27 00:14:58;;;;;;;5.85;5.40;;;;;;;;;;4975838;28;20229;-85
2023/09/27 00:17:23;;;;;;;5.97;5.57;;;;;;;;;;4969972;28;20288;-84
2023/09/27 00:19:49;;;;;;;6.90;6.33;;;;;;;;;;4994072;28;20213;-87
2023/09/27 00:22:15;;;;;;;6.35;5.85;;;;;;;;;;4976940;28;20221;-85
2023/09/27 00:24:41;;;;;;;6.97;6.47;;;;;;;;;;4993449;28;20221;-86
2023/09/27 00:27:07;;;;;;;8.10;7.40;;;;;;;;;;4993803;28;20291;-87
2023/09/27 00:29:36;;;;;;;7.90;7.40;;;;;;;;;;4992554;28;20209;-85
2023/09/27 00:32:06;;;;;;;7.57;6.87;;;;;;;;;;4999285;28;21039;-85
2023/09/27 00:34:34;;;;;;;8.53;7.70;;;;;;;;;;4995539;28;20957;-86
2023/09/27 00:37:00;;;;;;;7.67;6.97;;;;;;;;;;4976446;28;20317;-85
2023/09/27 00:39:26;;;;;;;6.87;6.27;;;;;;;;;;4974328;28;20260;-86
2023/09/27 00:41:51;;;;;;;7.18;6.68;;;;;;;;;;4969204;28;20259;-86
2023/09/27 00:44:17;;;;;;;5.90;5.50;;;;;;;;;;4982496;28;20224;-85
2023/09/27 00:46:45;;;;;;;5.33;4.90;;;;;;;;;;4964442;28;20232;-87
2023/09/27 00:49:13;;;;;;;5.82;5.32;;;;;;;;;;4964557;28;20252;-86
2023/09/27 00:51:41;;;;;;;5.80;5.40;;;;;;;;;;4968852;28;20274;-88
2023/09/27 00:54:09;;;;;;;7.53;7.03;;;;;;;;;;4978779;28;20231;-86
2023/09/27 00:56:41;;;;;;;7.63;5.73;;;;;;;;;;4978813;28;20213;-86
2023/09/27 00:59:09;;;;;;;8.30;5.80;;;;;;;;;;4965589;28;20223;-87
2023/09/27 01:01:37;;;;;;;7.20;5.97;;;;;;;;;;4961697;28;20246;-87
2023/09/27 01:04:07;;;;;;;7.00;6.50;;;;;;;;;;4976716;28;20224;-86
2023/09/27 01:06:36;;;;;;;7.00;6.43;;;;;;;;;;4993347;28;21027;-86
2023/09/27 01:09:04;;;;;;;7.67;7.07;;;;;;;;;;5002214;28;20336;-86
2023/09/27 01:11:32;;;;;;;7.33;6.83;;;;;;;;;;4973531;28;20615;-87
2023/09/27 01:13:58;;;;;;;7.90;7.13;;;;;;;;;;4970635;28;20216;-86
2023/09/27 01:16:25;;;;;;;5.80;5.47;;;;;;;;;;4988772;28;20240;-87
2023/09/27 01:18:50;;;;;;;6.43;5.93;;;;;;;;;;4981135;28;20212;-86
2023/09/27 01:21:19;;;;;;;6.77;6.27;;;;;;;;;;4990899;28;20259;-86
2023/09/27 01:23:46;;;;;;;9.00;6.50;;;;;;;;;;4991911;28;20228;-87
2023/09/27 01:26:15;;;;;;;6.27;5.87;;;;;;;;;;4974755;28;20237;-86
2023/09/27 01:28:41;;;;;;;8.20;7.47;;;;;;;;;;4974323;28;20229;-86
2023/09/27 01:31:07;;;;;;;6.68;6.18;;;;;;;;;;4979864;28;20666;-86
2023/09/27 01:33:33;;;;;;;7.40;6.80;;;;;;;;;;4968469;28;20217;-86
2023/09/27 01:36:02;;;;;;;7.00;6.40;;;;;;;;;;4986805;28;20240;-86
2023/09/27 01:38:30;;;;;;;6.95;6.45;;;;;;;;;;4961348;28;20327;-86
2023/09/27 01:41:00;;;;;;;5.80;5.40;;;;;;;;;;4982818;28;20222;-86
2023/09/27 01:43:29;;;;;;;5.85;5.32;;;;;;;;;;4968115;28;20253;-85
2023/09/27 01:45:55;;;;;;;7.27;6.53;;;;;;;;;;4984604;28;20722;-86
2023/09/27 01:48:21;;;;;;;7.63;7.03;;;;;;;;;;4960682;28;20229;-87
2023/09/27 01:50:51;;;;;;;7.10;6.50;;;;;;;;;;4967987;28;20307;-87
2023/09/27 01:53:18;;;;;;;7.37;6.77;;;;;;;;;;4993783;28;20229;-85
2023/09/27 01:55:48;;;;;;;7.93;7.13;;;;;;;;;;4986059;28;20228;-87
2023/09/27 01:58:13;;;;;;;7.57;6.87;;;;;;;;;;4982803;28;20216;-87
2023/09/27 02:00:43;;;;;;;7.20;6.60;;;;;;;;;;4963310;28;20218;-86
2023/09/27 02:03:11;;;;;;;8.20;7.37;;;;;;;;;;4981593;28;20224;-86
2023/09/27 02:05:42;;;;;;;7.53;6.93;;;;;;;;;;4977530;28;20221;-86
2023/09/27 02:08:11;;;;;;;6.57;6.07;;;;;;;;;;4974673;28;20225;-87
2023/09/27 02:10:37;;;;;;;6.73;6.07;;;;;;;;;;4963699;28;20225;-86
2023/09/27 02:13:03;;;;;;;9.53;6.77;;;;;;;;;;4967456;28;20241;-86
2023/09/27 02:15:28;;;;;;;6.57;5.90;;;;;;;;;;4972809;28;20224;-86
2023/09/27 02:17:56;;;;;;;6.77;6.27;;;;;;;;;;4975211;28;20217;-86
2023/09/27 02:20:27;;;;;;;5.90;5.50;;;;;;;;;;4978617;28;20236;-86
2023/09/27 02:22:58;;;;;;;6.20;5.80;;;;;;;;;;4963379;28;20220;-87
2023/09/27 02:25:25;;;;;;;6.80;6.30;;;;;;;;;;4978630;28;20232;-85
2023/09/27 02:27:54;;;;;;;7.30;6.80;;;;;;;;;;4961875;28;20396;-85
2023/09/27 02:30:20;;;;;;;7.00;6.50;;;;;;;;;;4963698;28;20249;-86
2023/09/27 02:32:46;;;;;;;6.07;5.57;;;;;;;;;;4983411;28;20251;-86
2023/09/27 02:35:14;;;;;;;6.63;6.13;;;;;;;;;;4958804;28;20223;-85
2023/09/27 02:37:43;;;;;;;7.40;6.90;;;;;;;;;;4959744;28;20217;-86
2023/09/27 02:40:11;;;;;;;7.80;7.20;;;;;;;;;;4956753;28;20595;-86
2023/09/27 02:42:42;;;;;;;7.37;6.87;;;;;;;;;;4976907;28;20210;-85
2023/09/27 02:45:09;;;;;;;7.60;7.10;;;;;;;;;;4972838;28;20862;-85
2023/09/27 02:47:35;;;;;;;6.70;6.30;;;;;;;;;;4984365;28;20312;-86
2023/09/27 02:50:12;;;;;;;7.33;6.63;;;;;;;;;;4974642;28;20323;-86
2023/09/27 02:52:43;;;;;;;7.30;6.80;;;;;;;;;;4986058;28;20296;-86
2023/09/27 02:55:14;;;;;;;7.90;7.30;;;;;;;;;;4958023;28;20222;-86
2023/09/27 02:57:39;;;;;;;6.67;6.17;;;;;;;;;;4978893;28;20240;-86
2023/09/27 03:00:06;;;;;;;9.13;6.50;;;;;;;;;;4963729;28;20698;-86
2023/09/27 03:02:33;;;;;;;6.27;5.17;;;;;;;;;;4974870;28;20223;-85
2023/09/27 03:04:59;;;;;;;5.67;5.27;;;;;;;;;;4961743;28;20621;-85
2023/09/27 03:07:24;;;;;;;5.90;5.07;;;;;;;;;;4966708;28;20350;-87
2023/09/27 03:09:50;;;;;;;5.33;4.93;;;;;;;;;;4981332;28;20212;-87
2023/09/27 03:12:15;;;;;;;5.17;4.70;;;;;;;;;;4977670;28;20218;-87
2023/09/27 03:14:41;;;;;;;5.10;4.70;;;;;;;;;;4976813;28;20224;-87
2023/09/27 03:17:07;;;;;;;5.33;4.90;;;;;;;;;;4962802;28;20230;-87
2023/09/27 03:19:33;;;;;;;5.33;4.90;;;;;;;;;;4964012;28;20209;-88
2023/09/27 03:21:58;;;;;;;5.50;5.10;;;;;;;;;;4974923;28;20625;-87
2023/09/27 03:24:26;;;;;;;5.43;5.03;;;;;;;;;;5000679;28;20644;-87
2023/09/27 03:26:52;;;;;;;5.17;4.80;;;;;;;;;;4985473;28;20319;-86
2023/09/27 03:29:17;;;;;;;5.53;5.13;;;;;;;;;;4980463;28;20217;-86
2023/09/27 03:31:44;;;;;;;5.53;5.13;;;;;;;;;;4962776;28;20252;-86
2023/09/27 03:34:12;;;;;;;6.20;5.70;;;;;;;;;;4958421;28;20231;-86
2023/09/27 03:36:37;;;;;;;5.80;5.30;;;;;;;;;;4962378;28;20687;-87
2023/09/27 03:39:06;;;;;;;6.00;5.60;;;;;;;;;;4980544;28;20243;-86
2023/09/27 03:41:31;;;;;;;4.30;4.00;;;;;;;;;;4978142;28;20221;-85
2023/09/27 03:43:57;;;;;;;7.33;5.20;;;;;;;;;;4977996;28;20243;-86
2023/09/27 03:46:26;;;;;;;6.47;5.90;;;;;;;;;;4989131;28;20243;-79
2023/09/27 03:48:52;;;;;;;7.23;6.50;;;;;;;;;;4984665;28;20221;-79
2023/09/27 03:51:27;;;;;;;7.07;6.47;;;;;;;;;;4969369;28;21283;-79
2023/09/27 03:53:52;;;;;;;7.10;6.63;;;;;;;;;;4967360;28;20214;-78
2023/09/27 03:56:27;;;;;;;6.70;6.10;;;;;;;;;;5002784;28;20216;-79
2023/09/27 03:58:53;;;;;;;6.63;6.13;;;;;;;;;;4959516;28;20252;-77
2023/09/27 04:05:09;;;;;;;6.37;5.97;;;;;;;;;;5006710;28;20768;-79
2023/09/27 04:07:35;;;;;;;6.20;5.70;;;;;;;;;;4970599;28;20236;-78
2023/09/27 04:10:04;;;;;;;5.73;5.33;;;;;;;;;;4989374;28;20223;-80
2023/09/27 04:12:30;;;;;;;10.73;5.63;;;;;;;;;;4974049;28;20228;-80
2023/09/27 04:14:58;;;;;;;5.67;5.27;;;;;;;;;;4972206;28;20316;-80
2023/09/27 04:17:26;;;;;;;6.20;5.70;;;;;;;;;;5002616;28;20228;-80
2023/09/27 04:19:57;;;;;;;6.13;5.73;;;;;;;;;;4990573;28;20221;-80
2023/09/27 04:22:22;;;;;;;6.57;6.07;;;;;;;;;;4971187;28;20209;-78
2023/09/27 04:24:48;;;;;;;5.80;5.40;;;;;;;;;;4955307;28;20464;-79
2023/09/27 04:27:15;;;;;;;5.30;5.00;;;;;;;;;;4970787;28;20224;-80
2023/09/27 04:29:41;;;;;;;4.87;4.50;;;;;;;;;;4968790;28;20252;-79
2023/09/27 04:32:11;;;;;;;5.07;4.73;;;;;;;;;;5000007;28;20297;-80
2023/09/27 04:34:46;;;;;;;5.73;5.33;;;;;;;;;;4961835;28;20224;-83
2023/09/27 04:37:12;;;;;;;6.23;5.67;;;;;;;;;;4998619;28;20254;-81
2023/09/27 04:39:42;;;;;;;5.20;4.80;;;;;;;;;;4982811;28;20244;-82
2023/09/27 04:42:08;;;;;;;4.97;4.67;;;;;;;;;;5012449;28;20338;-81
2023/09/27 04:44:33;;;;;;;6.30;5.33;;;;;;;;;;4965248;28;20241;-83
2023/09/27 04:46:59;;;;;;;5.00;4.70;;;;;;;;;;4984329;28;20218;-80
2023/09/27 04:49:24;;;;;;;4.93;4.63;;;;;;;;;;5003306;28;20232;-83
2023/09/27 04:51:50;;;;;;;4.73;4.43;;;;;;;;;;5010067;28;20288;-80
2023/09/27 04:54:17;;;;;;;5.13;4.73;;;;;;;;;;5014726;28;20299;-80
2023/09/27 04:56:42;;;;;;;5.67;5.17;;;;;;;;;;5012986;28;20252;-81
2023/09/27 04:59:08;;;;;;;6.00;5.50;;;;;;;;;;4993167;28;20204;-81
2023/09/27 05:01:35;;;;;;;5.97;5.37;;;;;;;;;;5026643;28;20235;-82
2023/09/27 05:04:02;;;;;;;6.70;6.13;;;;;;;;;;5000846;28;20232;-81
2023/09/27 05:06:28;;;;;;;5.20;4.90;;;;;;;;;;4987176;28;20215;-82
2023/09/27 05:08:54;;;;;;;5.00;4.60;;;;;;;;;;5002921;28;20284;-82
2023/09/27 05:11:20;;;;;;;4.87;4.57;;;;;;;;;;4964877;28;20233;-81
2023/09/27 05:13:49;;;;;;;6.73;6.23;;;;;;;;;;4977415;28;20218;-82
2023/09/27 05:16:14;;;;;;;6.20;5.80;;;;;;;;;;4986790;28;20316;-78
2023/09/27 05:18:41;;;;;;;5.30;5.00;;;;;;;;;;4984143;28;20701;-80
2023/09/27 05:21:06;;;;;;;5.23;4.73;;;;;;;;;;5001166;28;20221;-78
2023/09/27 05:23:32;;;;;;;6.00;5.50;;;;;;;;;;4983114;28;20239;-79
2023/09/27 05:25:58;;;;;;;5.97;5.57;;;;;;;;;;4981510;28;20225;-82
2023/09/27 05:28:23;;;;;;;5.10;4.80;;;;;;;;;;4995429;28;21892;-79
2023/09/27 05:30:49;;;;;;;6.07;5.67;;;;;;;;;;4997927;28;20217;-79
2023/09/27 05:33:14;;;;;;;6.73;6.23;;;;;;;;;;4994853;28;20224;-79
2023/09/27 05:35:40;;;;;;;6.30;5.90;;;;;;;;;;5011045;28;20278;-82
2023/09/27 05:38:06;;;;;;;6.83;6.33;;;;;;;;;;4983771;28;20213;-79
2023/09/27 05:40:31;;;;;;;7.37;6.10;;;;;;;;;;4996864;28;20233;-80
2023/09/27 05:42:59;;;;;;;6.00;5.57;;;;;;;;;;4973862;28;20568;-81
2023/09/27 05:45:27;;;;;;;5.77;5.37;;;;;;;;;;4981650;28;20232;-80
2023/09/27 05:47:57;;;;;;;5.63;5.23;;;;;;;;;;5011026;28;20355;-81
2023/09/27 05:50:23;;;;;;;5.40;5.03;;;;;;;;;;4999652;28;22309;-80
2023/09/27 05:52:56;;;;;;;5.80;5.33;;;;;;;;;;4984339;28;20225;-81
2023/09/27 05:55:21;;;;;;;5.67;5.27;;;;;;;;;;4991138;28;20225;-81
2023/09/27 05:57:49;;;;;;;6.43;6.00;;;;;;;;;;5011257;28;20209;-80
2023/09/27 06:00:21;;;;;;;5.73;5.33;;;;;;;;;;4992884;28;20212;-81
2023/09/27 06:02:54;;;;;;;6.07;5.63;;;;;;;;;;5007201;28;20225;-81
2023/09/27 06:05:20;;;;;;;5.60;5.20;;;;;;;;;;4989503;28;20254;-82
2023/09/27 06:07:48;;;;;;;5.30;5.00;;;;;;;;;;4990379;28;20272;-82
2023/09/27 06:10:14;;;;;;;6.10;5.50;;;;;;;;;;5017534;28;20232;-82
2023/09/27 06:12:42;;;;;;;5.73;5.33;;;;;;;;;;4999741;28;20221;-79
2023/09/27 06:15:14;;;;;;;6.03;5.63;;;;;;;;;;4994789;28;20252;-78
2023/09/27 06:17:40;;;;;;;5.67;5.27;;;;;;;;;;4989468;28;20232;-78
2023/09/27 06:20:11;;;;;;;5.90;5.40;;;;;;;;;;4990462;28;20229;-79
2023/09/27 06:22:38;;;;;;;4.90;4.60;;;;;;;;;;4991788;28;20236;-78
2023/09/27 06:25:05;;;;;;;6.50;6.00;;;;;;;;;;5005919;28;21005;-78
2023/09/27 06:27:30;;;;;;;5.73;5.33;;;;;;;;;;4990942;28;20760;-79
2023/09/27 06:30:03;;;;;;;6.60;6.10;;;;;;;;;;4976687;28;20225;-80
2023/09/27 06:32:31;;;;;;;6.40;5.93;;;;;;;;;;4993724;28;20233;-79
2023/09/27 06:34:57;;;;;;;6.80;6.10;;;;;;;;;;4979949;28;20239;-80
2023/09/27 06:37:22;;;;;;;7.33;6.63;;;;;;;;;;4995773;28;20776;-81
2023/09/27 06:39:50;;;;;;;8.83;8.00;;;;;;;;;;4974284;28;20239;-80
2023/09/27 06:42:15;;;;;;;8.80;8.10;;;;;;;;;;5013653;28;20219;-80
2023/09/27 06:44:43;;;;;;;8.40;7.70;;;;;;;;;;4996027;28;20229;-80
2023/09/27 06:47:11;;;;;;;9.00;8.30;;;;;;;;;;4998313;28;20241;-80
2023/09/27 06:49:37;;;;;;;10.00;9.20;;;;;;;;;;4975085;28;20225;-78
2023/09/27 06:52:02;;;;;;;10.40;9.63;;;;;;;;;;4988964;28;20251;-79
2023/09/27 06:54:31;;;;;;;10.47;9.57;;;;;;;;;;4959216;28;20232;-79
2023/09/27 06:56:56;;;;;;;10.97;10.07;;;;;;;;;;4990586;28;20221;-79
2023/09/27 06:59:25;;;;;;;10.77;9.98;;;;;;;;;;4989637;28;20213;-79
2023/09/27 07:01:50;;;;;;;9.88;9.15;;;;;;;;;;4976972;28;20228;-79
2023/09/27 07:04:16;;;;;;;9.13;8.43;;;;;;;;;;4991292;28;20210;-80
2023/09/27 07:06:45;;;;;;;10.30;9.50;;;;;;;;;;4995151;28;20225;-79
2023/09/27 07:09:16;;;;;;;9.32;8.52;;;;;;;;;;4995460;28;20217;-79
2023/09/27 07:11:44;;;;;;;8.80;8.13;;;;;;;;;;4978310;28;20278;-80
2023/09/27 07:14:10;;;;;;;8.85;8.13;;;;;;;;;;4991380;28;20236;-79
2023/09/27 07:16:36;;;;;;;8.88;8.13;;;;;;;;;;5006982;28;20320;-79
2023/09/27 07:19:05;;;;;;;8.43;7.80;;;;;;;;;;5001754;28;20217;-79
2023/09/27 07:21:34;;;;;;;8.50;7.80;;;;;;;;;;4961002;28;20224;-79
2023/09/27 07:23:59;;;;;;;7.93;7.28;;;;;;;;;;4969440;28;20229;-79
2023/09/27 07:26:29;;;;;;;8.20;7.50;;;;;;;;;;4994459;28;20239;-80
2023/09/27 07:28:56;;;;;;;8.25;7.63;;;;;;;;;;5011586;28;20294;-79
2023/09/27 07:31:26;;;;;;;7.95;7.35;;;;;;;;;;5004071;28;20233;-79
2023/09/27 07:33:55;;;;;;;7.93;7.20;;;;;;;;;;4988174;28;20220;-79
2023/09/27 07:36:26;;;;;;;7.07;6.55;;;;;;;;;;5010604;28;20228;-79
2023/09/27 07:38:52;;;;;;;7.35;6.75;;;;;;;;;;5015797;28;20224;-79
2023/09/27 07:41:20;;;;;;;7.10;6.40;;;;;;;;;;4997860;28;20280;-80
2023/09/27 07:43:48;;;;;;;7.13;6.53;;;;;;;;;;5013855;28;20364;-79
2023/09/27 07:46:14;;;;;;;6.63;6.13;;;;;;;;;;4975613;28;20228;-79
2023/09/27 07:48:42;;;;;;;6.47;5.85;;;;;;;;;;4994335;28;20261;-79
2023/09/27 07:51:19;;;;;;;6.00;5.60;;;;;;;;;;5011805;28;20244;-79
2023/09/27 07:53:45;;;;;;;5.90;5.40;;;;;;;;;;4996923;28;20225;-79
2023/09/27 07:56:25;;;;;;;5.70;5.30;;;;;;;;;;4996342;28;20228;-79
2023/09/27 07:58:52;;;;;;;6.07;5.57;;;;;;;;;;5000712;28;20257;-79
2023/09/27 08:01:21;;;;;;;5.85;5.25;;;;;;;;;;4980747;28;20251;-79
2023/09/27 08:04:00;;;;;;;5.45;5.00;;;;;;;;;;5010543;28;20228;-80
2023/09/27 08:06:26;;;;;;;5.05;4.65;;;;;;;;;;4986781;28;20228;-79
2023/09/27 08:08:51;;;;;;;4.78;4.38;;;;;;;;;;4995525;28;20224;-78
2023/09/27 08:11:17;;;;;;;4.80;4.50;;;;;;;;;;5013001;28;20590;-79
2023/09/27 08:13:44;;;;;;;4.47;4.18;;;;;;;;;;4979826;28;20520;-79
2023/09/27 08:16:12;;;;;;;4.88;4.47;;;;;;;;;;5015722;28;20214;-79
2023/09/27 08:18:39;;;;;;;4.65;4.35;;;;;;;;;;4992920;28;20285;-80
2023/09/27 08:21:04;;;;;;;4.80;4.40;;;;;;;;;;4983843;28;20228;-79
2023/09/27 08:23:30;;;;;;;4.97;4.47;;;;;;;;;;4967508;28;20224;-80
2023/09/27 08:26:13;;;;;;;5.40;5.00;;;;;;;;;;5001261;28;20218;-79
2023/09/27 08:28:41;;;;;;;5.47;4.97;;;;;;;;;;5006877;28;20740;-79
2023/09/27 08:31:06;;;;;;;5.10;4.70;;;;;;;;;;4999437;28;20231;-78
2023/09/27 08:33:32;;;;;;;6.53;4.75;;;;;;;;;;4978330;28;20632;-80
2023/09/27 08:35:58;;;;;;;6.28;4.80;;;;;;;;;;5002625;28;20317;-79
2023/09/27 08:38:23;;;;;;;7.80;5.00;;;;;;;;;;4997914;28;20224;-79
2023/09/27 08:40:49;;;;;;;5.07;4.68;;;;;;;;;;4977811;28;20244;-80
2023/09/27 08:43:15;;;;;;;4.93;4.53;;;;;;;;;;4994897;28;20622;-78
2023/09/27 08:45:40;;;;;;;4.80;4.40;;;;;;;;;;5007693;28;20573;-79
2023/09/27 08:48:09;;;;;;;4.05;3.75;;;;;;;;;;4982325;28;20596;-81
2023/09/27 08:50:35;;;;;;;4.25;3.92;;;;;;;;;;4992091;28;20252;-80
2023/09/27 08:53:03;;;;;;;3.78;3.45;;;;;;;;;;4982922;28;20233;-80
2023/09/27 08:55:29;;;;;;;3.28;3.08;;;;;;;;;;5015178;28;20224;-79
2023/09/27 08:57:56;;;;;;;4.43;3.28;;;;;;;;;;4990335;28;20225;-81
2023/09/27 09:00:26;;;;;;;4.32;3.20;;;;;;;;;;4976122;23;20229;-72
2023/09/27 09:02:56;;;;;;;5.38;3.13;;;;;;;;;;4950361;28;20235;-72
2023/09/27 09:05:27;;;;;;;3.67;3.38;;;;;;;;;;4953248;28;20603;-71
2023/09/27 09:07:59;;;;;;;3.78;3.38;;;;;;;;;;4933028;28;20697;-73
2023/09/27 09:10:29;;;;;;;3.78;3.15;;;;;;;;;;4931797;29;20229;-72
2023/09/27 09:12:59;;;;;;;3.10;2.88;;;;;;;;;;4932660;29;20230;-72
2023/09/27 09:15:44;;;;;;;6.93;3.20;;;;;;;;;;4931408;28;20278;-72
2023/09/27 09:18:28;;;;;;;3.70;3.40;;;;;;;;;;4943853;28;20709;-73
2023/09/27 09:20:54;;;;;;;5.45;2.70;;;;;;;;;;4932628;29;20732;-73
2023/09/27 09:23:30;;;;;;;5.22;3.20;;;;;;;;;;4948261;28;20787;-72
2023/09/27 09:25:58;;;;;;;3.42;3.13;;;;;;;;;;4948107;28;20235;-70
2023/09/27 09:28:27;;;;;;;4.30;2.65;;;;;;;;;;4931571;28;20235;-71
2023/09/27 09:30:54;;;;;;;3.50;3.05;;;;;;;;;;4947982;29;20238;-73
2023/09/27 09:33:36;;;;;;;4.35;4.03;;;;;;;;;;4915070;29;20219;-73
2023/09/27 09:36:04;;;;;;;6.00;5.50;;;;;;;;;;4946158;28;20228;-72
2023/09/27 09:38:34;;;;;;;2.85;2.65;;;;;;;;;;4932359;29;20223;-72
2023/09/27 09:41:10;;;;;;;6.85;3.00;;;;;;;;;;4912367;28;20216;-73
2023/09/27 09:43:38;;;;;;;3.45;2.60;;;;;;;;;;4932552;29;20235;-72
2023/09/27 09:46:06;;;;;;;2.75;2.55;;;;;;;;;;4931211;28;20230;-73
2023/09/27 09:48:40;;;;;;;3.53;2.40;;;;;;;;;;4993278;23;20252;-81
2023/09/27 09:51:06;;;;;;;2.28;2.17;;;;;;;;;;5021779;28;20219;-81
2023/09/27 09:53:39;;;;;;;2.60;2.38;;;;;;;;;;5003391;28;20245;-80
2023/09/27 09:56:05;;;;;;;2.30;1.95;;;;;;;;;;4996067;28;20226;-80
2023/09/27 09:58:40;;;;;;;2.60;2.40;;;;;;;;;;5015800;28;20225;-80
2023/09/27 10:01:06;;;;;;;2.90;2.28;;;;;;;;;;5009820;28;20220;-80
2023/09/27 10:03:33;;;;;;;2.38;2.03;;;;;;;;;;5009016;28;20602;-80
2023/09/27 10:06:04;;;;;;;4.50;2.10;;;;;;;;;;5004486;28;20219;-79
2023/09/27 10:08:38;;;;;;;2.30;2.08;;;;;;;;;;5008146;28;20231;-81
2023/09/27 10:11:04;;;;;;;1.80;1.70;;;;;;;;;;5016158;28;20316;-82
2023/09/27 10:13:36;;;;;;;2.50;1.90;;;;;;;;;;5001410;28;20217;-81
2023/09/27 10:16:03;;;;;;;2.63;2.08;;;;;;;;;;5018820;28;20316;-80
2023/09/27 10:18:30;;;;;;;2.05;1.85;;;;;;;;;;4978180;28;20335;-80
2023/09/27 10:21:09;;;;;;;1.75;1.65;;;;;;;;;;4988813;28;20237;-80
2023/09/27 10:23:44;;;;;;;2.40;1.80;;;;;;;;;;5015524;28;20268;-81
2023/09/27 10:26:23;;;;;;;1.70;1.60;;;;;;;;;;5010293;28;20252;-80
2023/09/27 10:29:01;;;;;;;2.90;1.70;;;;;;;;;;5017802;28;20224;-81
2023/09/27 10:31:27;;;;;;;3.03;1.73;;;;;;;;;;5031125;28;20263;-80
2023/09/27 10:33:53;;;;;;;2.25;1.60;;;;;;;;;;5015975;28;20228;-80
2023/09/27 10:36:18;;;;;;;1.48;1.38;;;;;;;;;;5012600;28;20217;-81
2023/09/27 10:38:47;;;;;;;2.25;1.70;;;;;;;;;;5027021;28;20244;-78
2023/09/27 10:41:34;;;;;;;1.80;1.70;;;;;;;;;;5000786;28;20216;-80
2023/09/27 10:44:00;;;;;;;2.22;1.90;;;;;;;;;;5013089;28;21575;-81
2023/09/27 10:46:26;;;;;;;2.58;1.73;;;;;;;;;;4986755;28;20260;-81
2023/09/27 10:48:55;;;;;;;2.25;1.70;;;;;;;;;;4982698;28;20759;-80
2023/09/27 10:51:21;;;;;;;1.95;1.80;;;;;;;;;;4996092;28;20228;-81
2023/09/27 10:53:50;;;;;;;2.13;1.70;;;;;;;;;;5013799;28;20222;-79
2023/09/27 10:56:16;;;;;;;2.15;1.50;;;;;;;;;;5025158;28;20233;-79
2023/09/27 10:58:44;;;;;;;3.47;1.90;;;;;;;;;;4997680;28;20213;-80
2023/09/27 11:01:22;;;;;;;1.70;1.50;;;;;;;;;;5004157;28;20312;-82
2023/09/27 11:04:02;;;;;;;1.65;1.55;;;;;;;;;;5004149;28;20216;-80
2023/09/27 11:06:32;;;;;;;3.72;1.65;;;;;;;;;;5001519;28;20225;-80
2023/09/27 11:09:08;;;;;;;2.38;1.85;;;;;;;;;;4989869;28;20733;-80
2023/09/27 11:11:34;;;;;;;1.77;1.67;;;;;;;;;;5007581;28;20259;-80
2023/09/27 11:14:00;;;;;;;1.63;1.52;;;;;;;;;;5014648;28;20706;-80
2023/09/27 11:16:25;;;;;;;1.73;1.50;;;;;;;;;;5009934;28;20221;-81
2023/09/27 11:18:57;;;;;;;1.80;1.70;;;;;;;;;;4989687;28;20218;-80
2023/09/27 11:21:26;;;;;;;2.17;1.83;;;;;;;;;;5027060;28;20224;-80
2023/09/27 11:24:00;;;;;;;2.10;1.88;;;;;;;;;;5031613;28;20216;-81
2023/09/27 11:26:34;;;;;;;2.85;1.80;;;;;;;;;;5030725;28;20277;-81
2023/09/27 11:29:05;;;;;;;2.40;1.70;;;;;;;;;;4998637;28;20225;-80
2023/09/27 11:31:35;;;;;;;2.38;1.83;;;;;;;;;;5013733;28;20311;-81
2023/09/27 11:34:19;;;;;;;2.10;1.85;;;;;;;;;;4995356;28;20248;-82
2023/09/27 11:36:49;;;;;;;2.78;1.77;;;;;;;;;;5011723;28;20596;-80
2023/09/27 11:39:19;;;;;;;1.80;1.70;;;;;;;;;;5003210;28;20746;-81
2023/09/27 11:41:45;;;;;;;2.92;1.65;;;;;;;;;;5003367;28;20320;-81
2023/09/27 11:44:21;;;;;;;1.67;1.52;;;;;;;;;;5015823;28;20240;-81
2023/09/27 11:46:49;;;;;;;3.38;2.08;;;;;;;;;;5004039;28;20229;-80
2023/09/27 11:49:18;;;;;;;2.25;1.67;;;;;;;;;;5001234;28;20252;-82
2023/09/27 11:51:44;;;;;;;2.47;1.75;;;;;;;;;;5014106;28;20220;-85
2023/09/27 11:54:12;;;;;;;1.52;1.42;;;;;;;;;;5000281;28;20216;-81
2023/09/27 11:56:40;;;;;;;2.83;2.00;;;;;;;;;;5003536;28;20366;-82
2023/09/27 11:59:06;;;;;;;3.42;1.85;;;;;;;;;;4993363;28;20267;-82
2023/09/27 12:01:31;;;;;;;2.65;1.70;;;;;;;;;;4988313;28;20304;-81
2023/09/27 12:04:00;;;;;;;3.40;1.85;;;;;;;;;;4989162;28;20217;-82
2023/09/27 12:06:29;;;;;;;2.05;1.73;;;;;;;;;;5018176;28;20224;-79
2023/09/27 12:08:55;;;;;;;1.52;1.42;;;;;;;;;;4984177;28;20353;-81
2023/09/27 12:11:21;;;;;;;1.63;1.52;;;;;;;;;;4983899;28;20235;-82
2023/09/27 12:13:49;;;;;;;1.67;1.58;;;;;;;;;;5020049;28;20220;-80
2023/09/27 12:16:19;;;;;;;2.10;1.60;;;;;;;;;;5008684;28;20452;-80
2023/09/27 12:18:45;;;;;;;1.83;1.73;;;;;;;;;;5024555;28;20229;-82
2023/09/27 12:21:13;;;;;;;4.03;1.60;;;;;;;;;;5026051;28;20356;-80
2023/09/27 12:23:41;;;;;;;1.80;1.70;;;;;;;;;;5001516;28;20229;-81
2023/09/27 12:26:09;;;;;;;2.65;1.60;;;;;;;;;;5021428;28;20227;-80
2023/09/27 12:28:36;;;;;;;3.78;1.90;;;;;;;;;;4984584;28;20240;-79
2023/09/27 12:31:05;;;;;;;1.85;1.30;;;;;;;;;;5022191;28;20229;-81
2023/09/27 12:33:33;;;;;;;1.67;1.58;;;;;;;;;;4996972;28;20284;-80
2023/09/27 12:36:01;;;;;;;3.20;1.85;;;;;;;;;;4996808;28;20226;-82
2023/09/27 12:38:27;;;;;;;2.55;1.50;;;;;;;;;;5011985;28;20315;-81
2023/09/27 12:40:53;;;;;;;2.15;1.70;;;;;;;;;;4980992;28;20243;-82
2023/09/27 12:43:18;;;;;;;1.80;1.70;;;;;;;;;;4991942;28;20324;-81
2023/09/27 12:45:51;;;;;;;2.50;1.67;;;;;;;;;;5012652;28;20221;-82
2023/09/27 12:48:16;;;;;;;3.05;1.45;;;;;;;;;;5005824;28;20220;-81
2023/09/27 12:50:45;;;;;;;2.53;1.95;;;;;;;;;;5012769;28;20232;-78
2023/09/27 12:53:10;;;;;;;1.55;1.45;;;;;;;;;;4997144;28;20304;-78
2023/09/27 12:55:40;;;;;;;3.58;1.80;;;;;;;;;;4993293;28;20722;-78
2023/09/27 12:58:08;;;;;;;1.45;1.35;;;;;;;;;;4991550;28;20221;-78
2023/09/27 13:00:36;;;;;;;1.60;1.50;;;;;;;;;;5004903;28;20235;-79
2023/09/27 13:03:02;;;;;;;2.55;1.92;;;;;;;;;;5022479;28;20268;-79
2023/09/27 13:05:28;;;;;;;2.65;1.95;;;;;;;;;;5012600;28;20216;-83
2023/09/27 13:07:53;;;;;;;2.33;1.98;;;;;;;;;;5010120;28;20675;-80
2023/09/27 13:10:19;;;;;;;5.72;1.80;;;;;;;;;;5001892;28;20226;-80
2023/09/27 13:12:45;;;;;;;2.17;1.80;;;;;;;;;;4986205;28;20229;-81
2023/09/27 13:15:11;;;;;;;2.03;1.80;;;;;;;;;;5025531;28;20223;-81
2023/09/27 13:17:36;;;;;;;2.15;1.58;;;;;;;;;;4981127;28;20224;-80
2023/09/27 13:20:03;;;;;;;1.67;1.50;;;;;;;;;;4998654;28;20218;-80
2023/09/27 13:22:29;;;;;;;1.70;1.50;;;;;;;;;;5026382;28;20224;-79
2023/09/27 13:24:54;;;;;;;6.78;1.40;;;;;;;;;;5004460;28;20279;-80
2023/09/27 13:27:20;;;;;;;2.05;1.40;;;;;;;;;;4995475;28;20328;-80
2023/09/27 13:29:47;;;;;;;2.00;1.80;;;;;;;;;;5008228;28;20222;-79
2023/09/27 13:32:13;;;;;;;2.15;1.60;;;;;;;;;;5009114;28;20255;-82
2023/09/27 13:34:39;;;;;;;3.47;1.80;;;;;;;;;;4996068;28;20221;-81
2023/09/27 13:37:05;;;;;;;2.22;1.75;;;;;;;;;;4991748;28;20233;-80
2023/09/27 13:39:32;;;;;;;3.08;1.60;;;;;;;;;;5016089;28;20217;-79
2023/09/27 13:41:58;;;;;;;2.40;1.50;;;;;;;;;;4997620;28;20229;-80
2023/09/27 13:44:27;;;;;;;2.65;1.63;;;;;;;;;;5023545;28;20299;-79
2023/09/27 13:46:55;;;;;;;2.53;1.90;;;;;;;;;;5001660;28;20223;-79
2023/09/27 13:49:20;;;;;;;1.95;1.75;;;;;;;;;;5004679;28;20213;-79
2023/09/27 13:51:46;;;;;;;5.53;1.90;;;;;;;;;;5004571;28;20233;-79
2023/09/27 13:54:14;;;;;;;3.22;1.85;;;;;;;;;;4994627;28;20961;-77
2023/09/27 13:56:42;;;;;;;2.85;1.70;;;;;;;;;;4989742;28;20217;-79
2023/09/27 13:59:07;;;;;;;3.85;1.63;;;;;;;;;;5006095;28;20244;-80
2023/09/27 14:01:35;;;;;;;2.47;1.70;;;;;;;;;;4988478;28;20221;-79
2023/09/27 14:04:03;;;;;;;2.45;1.70;;;;;;;;;;5001906;28;20637;-79
2023/09/27 14:06:31;;;;;;;1.58;1.48;;;;;;;;;;4996209;28;20229;-80
2023/09/27 14:08:59;;;;;;;1.92;1.83;;;;;;;;;;5006267;28;20229;-78
2023/09/27 14:11:25;;;;;;;2.85;1.95;;;;;;;;;;4994044;28;20748;-77
2023/09/27 14:13:50;;;;;;;1.88;1.77;;;;;;;;;;4977453;28;20230;-77
2023/09/27 14:16:18;;;;;;;1.63;1.52;;;;;;;;;;5016174;28;20300;-77
2023/09/27 14:18:46;;;;;;;2.90;1.92;;;;;;;;;;5022205;28;20586;-79
2023/09/27 14:21:13;;;;;;;1.73;1.63;;;;;;;;;;5002732;28;20364;-79
2023/09/27 14:23:39;;;;;;;2.33;2.00;;;;;;;;;;5002149;28;20228;-79
2023/09/27 14:26:04;;;;;;;2.53;1.92;;;;;;;;;;4986975;28;20606;-80
2023/09/27 14:28:30;;;;;;;2.28;1.88;;;;;;;;;;5003923;28;20890;-81
2023/09/27 14:30:55;;;;;;;2.20;1.88;;;;;;;;;;5015165;28;20240;-79
2023/09/27 14:33:23;;;;;;;2.78;1.88;;;;;;;;;;4985631;28;20255;-78
2023/09/27 14:35:49;;;;;;;2.95;1.73;;;;;;;;;;4999708;28;20225;-78
2023/09/27 14:38:17;;;;;;;1.73;1.55;;;;;;;;;;5008142;28;20227;-77
2023/09/27 14:40:45;;;;;;;2.35;2.13;;;;;;;;;;4993443;28;20225;-78
2023/09/27 14:43:15;;;;;;;2.92;2.15;;;;;;;;;;5004618;28;20220;-79
2023/09/27 14:45:43;;;;;;;2.42;2.10;;;;;;;;;;4997900;28;20225;-78
2023/09/27 14:48:09;;;;;;;1.80;1.70;;;;;;;;;;4985154;28;20259;-79
2023/09/27 14:50:38;;;;;;;1.65;1.55;;;;;;;;;;4998804;28;20245;-81